Time;durP1;ratioP1;P1;durP2;ratioP2;P2;SDS_P1;SDS_P2;PMS_P1;PMS_P2;Temp;Humidity;BMP_temperature;BMP_pressure;BME280_temperature;BME280_humidity;BME280_pressure;Samples;Min_cycle;Max_cycle;Signal;HPM_P1;HPM_P2
2020/12/11 00:01:37;;;;;;;;;;;1.30;99.90;;;;;;5032895;28;19909;-88
2020/12/11 00:04:03;;;;;;;;;;;1.30;99.90;;;;;;5032820;28;19949;-88
2020/12/11 00:06:28;;;;;;;;;;;1.30;99.90;;;;;;5032749;28;20056;-90
2020/12/11 00:08:54;;;;;;;;;;;1.30;99.90;;;;;;5032894;28;19916;-90
2020/12/11 00:11:29;;;;;;;;;;;1.30;99.90;;;;;;5032974;28;19909;-90
2020/12/11 00:13:55;;;;;;;;;;;1.30;99.90;;;;;;5032873;28;20004;-88
2020/12/11 00:16:20;;;;;;;;;;;1.30;99.90;;;;;;5032600;28;19952;-89
2020/12/11 00:18:46;;;;;;;;;;;1.20;99.90;;;;;;5032206;28;19917;-90
2020/12/11 00:21:11;;;;;;;;;;;1.20;99.90;;;;;;5032411;28;19909;-90
2020/12/11 00:23:37;;;;;;;;;;;1.20;99.90;;;;;;5032624;28;19913;-90
2020/12/11 00:26:02;;;;;;;;;;;1.30;99.90;;;;;;5040648;28;19913;-90
2020/12/11 00:28:28;;;;;;;;;;;1.30;99.90;;;;;;5050985;28;19909;-90
2020/12/11 00:30:56;;;;;;;;;;;1.30;99.90;;;;;;5052538;28;20012;-90
2020/12/11 00:33:22;;;;;;;;;;;1.30;99.90;;;;;;5052326;28;20275;-90
2020/12/11 00:35:47;;;;;;;;;;;1.30;99.90;;;;;;5052053;28;19915;-90
2020/12/11 00:38:13;;;;;;;;;;;1.30;99.90;;;;;;5052162;28;19920;-90
2020/12/11 00:40:38;;;;;;;;;;;1.30;99.90;;;;;;5052282;28;19909;-90
2020/12/11 00:43:04;;;;;;;;;;;1.30;99.90;;;;;;5053432;28;20371;-90
2020/12/11 00:45:30;;;;;;;;;;;1.30;99.90;;;;;;5052094;28;19954;-90
2020/12/11 00:47:55;;;;;;;;;;;1.30;99.90;;;;;;5051992;28;19909;-89
2020/12/11 00:50:20;;;;;;;;;;;1.30;99.90;;;;;;5051854;28;19962;-89
2020/12/11 00:52:46;;;;;;;;;;;1.30;99.90;;;;;;5052169;28;19916;-90
2020/12/11 00:55:12;;;;;;;;;;;1.30;99.90;;;;;;5048780;28;20393;-90
2020/12/11 00:57:38;;;;;;;;;;;1.30;99.90;;;;;;5031922;28;19909;-90
2020/12/11 01:00:08;;;;;;;;;;;1.20;99.90;;;;;;5032101;28;19920;-90
2020/12/11 01:02:34;;;;;;;;;;;1.20;99.90;;;;;;5032146;28;20003;-90
2020/12/11 01:04:59;;;;;;;;;;;1.20;99.90;;;;;;5032017;28;19956;-90
2020/12/11 01:07:25;;;;;;;;;;;1.10;99.90;;;;;;5031715;28;19909;-90
2020/12/11 01:09:50;;;;;;;;;;;1.10;99.90;;;;;;5031921;28;20334;-90
2020/12/11 01:12:16;;;;;;;;;;;1.00;99.90;;;;;;5032030;28;19916;-90
2020/12/11 01:14:41;;;;;;;;;;;1.00;99.90;;;;;;5031937;28;20265;-90
2020/12/11 01:17:06;;;;;;;;;;;1.00;99.90;;;;;;5031726;28;19940;-90
2020/12/11 01:19:32;;;;;;;;;;;1.00;99.90;;;;;;5031717;28;20291;-90
2020/12/11 01:21:57;;;;;;;;;;;0.90;99.90;;;;;;5031962;28;19915;-90
2020/12/11 01:24:23;;;;;;;;;;;0.90;99.90;;;;;;5033904;28;20385;-90
2020/12/11 01:26:49;;;;;;;;;;;0.90;99.90;;;;;;5043182;28;19913;-90
2020/12/11 01:29:14;;;;;;;;;;;0.80;99.90;;;;;;5051458;28;19928;-90
2020/12/11 01:31:40;;;;;;;;;;;0.80;99.90;;;;;;5054301;28;20004;-90
2020/12/11 01:34:05;;;;;;;;;;;0.80;99.90;;;;;;5055868;28;19909;-90
2020/12/11 01:36:31;;;;;;;;;;;0.80;99.90;;;;;;5056860;28;19909;-89
2020/12/11 01:38:56;;;;;;;;;;;0.70;99.90;;;;;;5055585;28;19962;-88
2020/12/11 01:41:22;;;;;;;;;;;0.70;99.90;;;;;;5055762;28;19932;-90
2020/12/11 01:43:47;;;;;;;;;;;0.70;99.90;;;;;;5055527;28;19908;-90
2020/12/11 01:46:14;;;;;;;;;;;0.70;99.90;;;;;;5055529;28;20042;-90
2020/12/11 01:48:39;;;;;;;;;;;0.60;99.90;;;;;;5055578;28;19986;-90
2020/12/11 01:51:05;;;;;;;;;;;0.70;99.90;;;;;;5055411;28;20361;-89
2020/12/11 01:53:30;;;;;;;;;;;0.70;99.90;;;;;;5055500;28;19909;-89
2020/12/11 01:55:57;;;;;;;;;;;0.70;99.90;;;;;;5046884;28;19912;-90
2020/12/11 01:58:26;;;;;;;;;;;0.70;99.90;;;;;;5037380;28;19913;-90
2020/12/11 02:00:55;;;;;;;;;;;0.70;99.90;;;;;;5035474;28;19924;-90
2020/12/11 02:03:21;;;;;;;;;;;0.70;99.90;;;;;;5035353;28;20553;-90
2020/12/11 02:05:46;;;;;;;;;;;0.70;99.90;;;;;;5036372;28;19913;-89
2020/12/11 02:08:12;;;;;;;;;;;0.70;99.90;;;;;;5035236;28;19909;-90
2020/12/11 02:10:38;;;;;;;;;;;0.70;99.90;;;;;;5035277;28;19913;-90
2020/12/11 02:13:05;;;;;;;;;;;0.80;99.90;;;;;;5035429;28;20319;-89
2020/12/11 02:15:30;;;;;;;;;;;0.70;99.90;;;;;;5034986;28;20456;-90
2020/12/11 02:17:55;;;;;;;;;;;0.70;99.90;;;;;;5035209;28;19996;-90
2020/12/11 02:20:21;;;;;;;;;;;0.70;99.90;;;;;;5035330;28;20265;-89
2020/12/11 02:22:47;;;;;;;;;;;0.60;99.90;;;;;;5035053;28;20012;-90
2020/12/11 02:25:15;;;;;;;;;;;0.60;99.90;;;;;;5035926;28;19909;-89
2020/12/11 02:27:40;;;;;;;;;;;0.50;99.90;;;;;;5034501;28;19910;-90
2020/12/11 02:30:06;;;;;;;;;;;0.50;99.90;;;;;;5034593;28;19909;-89
2020/12/11 02:32:31;;;;;;;;;;;0.40;99.90;;;;;;5034557;28;19916;-89
2020/12/11 02:34:57;;;;;;;;;;;0.30;99.90;;;;;;5034613;28;19964;-89
2020/12/11 02:37:22;;;;;;;;;;;0.30;99.90;;;;;;5034475;28;19909;-89
2020/12/11 02:39:48;;;;;;;;;;;0.20;99.90;;;;;;5034474;28;20291;-90
2020/12/11 02:42:13;;;;;;;;;;;0.20;99.90;;;;;;5033628;28;20299;-89
2020/12/11 02:44:39;;;;;;;;;;;0.20;99.90;;;;;;5034523;28;19964;-89
2020/12/11 02:47:04;;;;;;;;;;;0.20;99.90;;;;;;5034353;28;19921;-90
2020/12/11 02:49:29;;;;;;;;;;;0.10;99.90;;;;;;5034550;28;19959;-90
2020/12/11 02:51:55;;;;;;;;;;;0.10;99.90;;;;;;5034407;28;20013;-90
2020/12/11 02:54:20;;;;;;;;;;;0.10;99.90;;;;;;5035279;28;20442;-90
2020/12/11 02:56:46;;;;;;;;;;;0.10;99.90;;;;;;5045709;28;19908;-90
2020/12/11 02:59:11;;;;;;;;;;;0.00;99.90;;;;;;5054194;28;20011;-89
2020/12/11 03:01:37;;;;;;;;;;;0.00;99.90;;;;;;5054269;28;19909;-90
2020/12/11 03:04:02;;;;;;;;;;;0.00;99.90;;;;;;5054180;28;19908;-90
2020/12/11 03:06:30;;;;;;;;;;;0.00;99.90;;;;;;5053851;28;20004;-89
2020/12/11 03:08:56;;;;;;;;;;;0.00;99.90;;;;;;5053964;28;20372;-89
2020/12/11 03:11:21;;;;;;;;;;;0.00;99.90;;;;;;5053937;28;20050;-90
2020/12/11 03:13:47;;;;;;;;;;;0.00;99.90;;;;;;5054051;28;19940;-89
2020/12/11 03:16:12;;;;;;;;;;;0.00;99.90;;;;;;5053814;28;19959;-89
2020/12/11 03:18:38;;;;;;;;;;;0.00;99.90;;;;;;5053987;28;19912;-89
2020/12/11 03:21:03;;;;;;;;;;;0.00;99.90;;;;;;5053789;28;19909;-89
2020/12/11 03:23:29;;;;;;;;;;;-0.10;99.90;;;;;;5054039;28;20027;-89
2020/12/11 03:25:54;;;;;;;;;;;-0.10;99.90;;;;;;5050328;28;19920;-89
2020/12/11 03:28:20;;;;;;;;;;;-0.10;99.90;;;;;;5051233;28;19909;-89
2020/12/11 03:30:45;;;;;;;;;;;-0.10;99.90;;;;;;5053703;28;20355;-89
2020/12/11 03:33:11;;;;;;;;;;;-0.20;99.90;;;;;;5053665;28;19909;-89
2020/12/11 03:35:36;;;;;;;;;;;-0.20;99.90;;;;;;5053388;28;20363;-89
2020/12/11 03:38:03;;;;;;;;;;;-0.20;99.90;;;;;;5053381;28;19923;-89
2020/12/11 03:40:28;;;;;;;;;;;-0.20;99.90;;;;;;5053290;28;19909;-89
2020/12/11 03:42:54;;;;;;;;;;;-0.30;99.90;;;;;;5053419;28;19920;-89
2020/12/11 03:45:19;;;;;;;;;;;-0.30;99.90;;;;;;5053387;28;19966;-89
2020/12/11 03:47:45;;;;;;;;;;;-0.30;99.90;;;;;;5054406;28;19915;-89
2020/12/11 03:50:10;;;;;;;;;;;-0.30;99.90;;;;;;5053152;28;20548;-89
2020/12/11 03:52:36;;;;;;;;;;;-0.30;99.90;;;;;;5053151;28;20003;-89
2020/12/11 03:55:01;;;;;;;;;;;-0.40;99.90;;;;;;5046376;28;19917;-89
2020/12/11 03:57:27;;;;;;;;;;;-0.40;99.90;;;;;;5043009;28;19916;-89
2020/12/11 03:59:52;;;;;;;;;;;-0.40;99.90;;;;;;5052991;28;19913;-89
2020/12/11 04:02:18;;;;;;;;;;;-0.50;99.90;;;;;;5052979;28;19909;-90
2020/12/11 04:04:43;;;;;;;;;;;-0.50;99.90;;;;;;5052956;28;19915;-89
2020/12/11 04:07:09;;;;;;;;;;;-0.50;99.90;;;;;;5054155;28;19915;-89
2020/12/11 04:09:35;;;;;;;;;;;-0.60;99.90;;;;;;5052840;28;19913;-89
2020/12/11 04:12:00;;;;;;;;;;;-0.50;99.90;;;;;;5052742;28;19916;-89
2020/12/11 04:14:26;;;;;;;;;;;-0.60;99.90;;;;;;5052795;28;20003;-89
2020/12/11 04:16:51;;;;;;;;;;;-0.50;99.90;;;;;;5052457;28;20290;-89
2020/12/11 04:19:17;;;;;;;;;;;-0.50;99.90;;;;;;5053022;28;19912;-89
2020/12/11 04:21:46;;;;;;;;;;;-0.50;99.90;;;;;;5052986;28;19915;-89
2020/12/11 04:24:12;;;;;;;;;;;-0.50;99.90;;;;;;5052429;28;19909;-89
2020/12/11 04:26:37;;;;;;;;;;;-0.50;99.90;;;;;;5052313;28;19909;-88
2020/12/11 04:29:03;;;;;;;;;;;-0.50;99.90;;;;;;5052303;28;19909;-89
2020/12/11 04:31:28;;;;;;;;;;;-0.50;99.90;;;;;;5052640;28;19999;-89
2020/12/11 04:33:54;;;;;;;;;;;-0.40;99.90;;;;;;5052422;28;20414;-89
2020/12/11 04:36:19;;;;;;;;;;;-0.40;99.90;;;;;;5053394;28;20008;-89
2020/12/11 04:38:46;;;;;;;;;;;-0.50;99.90;;;;;;5052165;28;19963;-89
2020/12/11 04:41:13;;;;;;;;;;;-0.40;99.90;;;;;;5052299;28;19917;-89
2020/12/11 04:43:39;;;;;;;;;;;-0.50;99.90;;;;;;5052320;28;20370;-89
2020/12/11 04:46:05;;;;;;;;;;;-0.50;99.90;;;;;;5052189;28;19913;-89
2020/12/11 04:48:32;;;;;;;;;;;-0.50;99.90;;;;;;5052163;28;19974;-89
2020/12/11 04:50:59;;;;;;;;;;;-0.60;99.90;;;;;;5052081;28;20354;-89
2020/12/11 04:53:26;;;;;;;;;;;-0.60;99.90;;;;;;5051974;28;20030;-89
2020/12/11 04:55:54;;;;;;;;;;;-0.70;99.90;;;;;;5037166;28;20464;-89
2020/12/11 04:58:21;;;;;;;;;;;-0.80;99.90;;;;;;5052011;28;19977;-89
2020/12/11 05:00:47;;;;;;;;;;;-0.80;99.90;;;;;;5051831;28;19940;-89
2020/12/11 05:03:13;;;;;;;;;;;-0.80;99.90;;;;;;5052086;28;19962;-89
2020/12/11 05:05:39;;;;;;;;;;;-0.90;99.90;;;;;;5051323;28;19909;-88
2020/12/11 05:08:17;;;;;;;;;;;-0.90;99.90;;;;;;5053021;28;19936;-89
2020/12/11 05:10:43;;;;;;;;;;;-0.90;99.90;;;;;;5051755;28;20330;-88
2020/12/11 05:13:19;;;;;;;;;;;-1.00;99.90;;;;;;5051716;28;19909;-88
2020/12/11 05:16:04;;;;;;;;;;;-1.00;99.90;;;;;;5051546;28;20029;-89
2020/12/11 05:18:30;;;;;;;;;;;-1.10;99.90;;;;;;5051319;28;19999;-88
2020/12/11 05:21:12;;;;;;;;;;;-1.10;99.90;;;;;;5052938;28;20347;-89
2020/12/11 05:23:52;;;;;;;;;;;-1.10;99.90;;;;;;5051787;28;19909;-88
2020/12/11 05:26:18;;;;;;;;;;;-1.20;99.90;;;;;;5042483;28;19995;-89
2020/12/11 05:28:44;;;;;;;;;;;-1.20;99.90;;;;;;5031569;28;19936;-88
2020/12/11 05:31:10;;;;;;;;;;;-1.30;99.90;;;;;;5031607;28;19917;-89
2020/12/11 05:33:35;;;;;;;;;;;-1.30;99.90;;;;;;5031687;28;19909;-87
2020/12/11 05:36:01;;;;;;;;;;;-1.30;99.90;;;;;;5032641;28;19932;-88
2020/12/11 05:38:26;;;;;;;;;;;-1.40;99.90;;;;;;5031352;28;20318;-89
2020/12/11 05:40:52;;;;;;;;;;;-1.40;99.90;;;;;;5031462;28;19909;-88
2020/12/11 05:43:21;;;;;;;;;;;-1.30;99.90;;;;;;5031530;28;19913;-89
2020/12/11 05:45:50;;;;;;;;;;;-1.40;99.90;;;;;;5031290;28;19909;-89
2020/12/11 05:48:16;;;;;;;;;;;-1.40;99.90;;;;;;5031499;28;19978;-88
2020/12/11 05:50:41;;;;;;;;;;;-1.40;99.90;;;;;;5031207;28;20063;-88
2020/12/11 05:53:07;;;;;;;;;;;-1.40;99.90;;;;;;5031437;28;19953;-88
2020/12/11 05:55:32;;;;;;;;;;;-1.40;99.90;;;;;;5031367;28;19916;-88
2020/12/11 05:57:58;;;;;;;;;;;-1.30;99.90;;;;;;5045500;28;20397;-88
2020/12/11 06:00:24;;;;;;;;;;;-1.30;99.90;;;;;;5051213;28;19924;-89
2020/12/11 06:02:51;;;;;;;;;;;-1.30;99.90;;;;;;5051149;28;19909;-89
2020/12/11 06:05:17;;;;;;;;;;;-1.20;99.90;;;;;;5051010;28;20035;-88
2020/12/11 06:07:46;;;;;;;;;;;-1.20;99.90;;;;;;5051385;28;19908;-88
2020/12/11 06:10:13;;;;;;;;;;;-1.10;99.90;;;;;;5055484;28;20007;-88
2020/12/11 06:12:38;;;;;;;;;;;-1.10;99.90;;;;;;5056577;28;19957;-88
2020/12/11 06:15:06;;;;;;;;;;;-1.10;99.90;;;;;;5055490;28;19913;-88
2020/12/11 06:17:32;;;;;;;;;;;-1.10;99.90;;;;;;5056347;28;19940;-89
2020/12/11 06:19:59;;;;;;;;;;;-1.10;99.90;;;;;;5056003;28;19920;-89
2020/12/11 06:22:25;;;;;;;;;;;-1.00;99.90;;;;;;5055048;28;19917;-89
2020/12/11 06:24:50;;;;;;;;;;;-1.00;99.90;;;;;;5049715;28;20334;-88
2020/12/11 06:27:28;;;;;;;;;;;-1.00;99.90;;;;;;5042809;28;19909;-88
2020/12/11 06:29:53;;;;;;;;;;;-0.90;99.90;;;;;;5034719;28;20063;-89
2020/12/11 06:32:30;;;;;;;;;;;-1.00;99.90;;;;;;5034687;28;20472;-89
2020/12/11 06:35:12;;;;;;;;;;;-1.00;99.90;;;;;;5034649;28;20058;-88
2020/12/11 06:37:38;;;;;;;;;;;-1.00;99.90;;;;;;5035673;28;19947;-89
2020/12/11 06:40:03;;;;;;;;;;;-1.00;99.90;;;;;;5034592;28;19980;-89
2020/12/11 06:42:35;;;;;;;;;;;-1.00;99.90;;;;;;5034625;28;20450;-89
2020/12/11 06:45:20;;;;;;;;;;;-0.90;99.90;;;;;;5034742;28;19931;-89
2020/12/11 06:47:47;;;;;;;;;;;-1.00;99.90;;;;;;5034378;28;19909;-89
2020/12/11 06:50:12;;;;;;;;;;;-1.00;99.90;;;;;;5034453;28;20356;-89
2020/12/11 06:52:43;;;;;;;;;;;-1.00;99.90;;;;;;5034447;28;19909;-89
2020/12/11 06:55:09;;;;;;;;;;;-1.00;99.90;;;;;;5042976;28;19909;-89
2020/12/11 06:57:35;;;;;;;;;;;-1.00;99.90;;;;;;5054408;28;19920;-89
2020/12/11 07:00:21;;;;;;;;;;;-1.00;99.90;;;;;;5054149;28;19999;-89
2020/12/11 07:02:46;;;;;;;;;;;-1.00;99.90;;;;;;5053645;28;19909;-89
2020/12/11 07:05:12;;;;;;;;;;;-1.00;99.90;;;;;;5054186;28;20050;-89
2020/12/11 07:07:38;;;;;;;;;;;-1.00;99.90;;;;;;5053994;28;19909;-89
2020/12/11 07:10:05;;;;;;;;;;;-1.00;99.90;;;;;;5054621;28;19915;-89
2020/12/11 07:12:32;;;;;;;;;;;-1.00;99.90;;;;;;5054048;28;20383;-89
2020/12/11 07:14:58;;;;;;;;;;;-1.00;99.90;;;;;;5054062;28;19909;-89
2020/12/11 07:17:27;;;;;;;;;;;-1.00;99.90;;;;;;5053732;28;19912;-89
2020/12/11 07:19:52;;;;;;;;;;;-1.00;99.90;;;;;;5049704;28;19968;-88
2020/12/11 07:22:21;;;;;;;;;;;-1.00;99.90;;;;;;5053340;28;19948;-88
2020/12/11 07:24:47;;;;;;;;;;;-1.00;99.90;;;;;;5049655;28;19996;-89
2020/12/11 07:27:15;;;;;;;;;;;-0.90;99.90;;;;;;5041903;28;19909;-89
2020/12/11 07:29:50;;;;;;;;;;;-0.90;99.90;;;;;;5033692;28;19909;-88
2020/12/11 07:32:19;;;;;;;;;;;-0.90;99.90;;;;;;5034688;28;19913;-88
2020/12/11 07:34:44;;;;;;;;;;;-0.90;99.90;;;;;;5034498;28;20106;-89
2020/12/11 07:37:10;;;;;;;;;;;-0.80;99.90;;;;;;5033979;28;20265;-89
2020/12/11 07:39:35;;;;;;;;;;;-0.90;99.90;;;;;;5033685;28;19959;-89
2020/12/11 07:42:02;;;;;;;;;;;-0.90;99.90;;;;;;5034262;28;19909;-90
2020/12/11 07:44:28;;;;;;;;;;;-0.80;99.90;;;;;;5034698;28;20014;-89
2020/12/11 07:46:54;;;;;;;;;;;-0.80;99.90;;;;;;5034594;28;19916;-89
2020/12/11 07:49:20;;;;;;;;;;;-0.80;99.90;;;;;;5034782;28;19963;-89
2020/12/11 07:51:47;;;;;;;;;;;-0.70;99.90;;;;;;5036013;28;19921;-89
2020/12/11 07:54:13;;;;;;;;;;;-0.70;99.90;;;;;;5035390;28;19909;-89
2020/12/11 07:56:39;;;;;;;;;;;-0.60;99.90;;;;;;5046829;28;19932;-89
2020/12/11 07:59:09;;;;;;;;;;;-0.60;99.90;;;;;;5054862;28;19917;-89
2020/12/11 08:01:34;;;;;;;;;;;-0.60;99.90;;;;;;5049360;28;19913;-89
2020/12/11 08:04:00;;;;;;;;;;;-0.50;99.90;;;;;;5046687;28;19920;-89
2020/12/11 08:06:25;;;;;;;;;;;-0.50;99.90;;;;;;5033300;28;19928;-89
2020/12/11 08:08:50;;;;;;;;;;;-0.40;99.90;;;;;;5032954;28;19916;-89
2020/12/11 08:11:23;;;;;;;;;;;-0.40;99.90;;;;;;5038219;28;19916;-90
2020/12/11 08:14:04;;;;;;;;;;;-0.30;99.90;;;;;;5052362;28;19908;-89
2020/12/11 08:16:30;;;;;;;;;;;-0.20;99.90;;;;;;5041310;28;20291;-89
2020/12/11 08:19:16;;;;;;;;;;;-0.20;99.90;;;;;;5052807;28;19919;-89
2020/12/11 08:21:41;;;;;;;;;;;-0.10;99.90;;;;;;5050636;28;20387;-89
2020/12/11 08:24:07;;;;;;;;;;;-0.10;99.90;;;;;;5052677;28;19909;-89
2020/12/11 08:26:37;;;;;;;;;;;0.00;99.90;;;;;;5049867;28;20398;-89
2020/12/11 08:29:08;;;;;;;;;;;0.00;99.90;;;;;;5032615;28;19909;-89
2020/12/11 08:34:45;;;;;;;;;;;0.40;99.90;;;;;;5033719;28;19916;-89
2020/12/11 08:37:15;;;;;;;;;;;0.70;99.90;;;;;;5032608;28;19916;-88
2020/12/11 08:39:40;;;;;;;;;;;1.10;99.90;;;;;;5032176;28;19913;-89
2020/12/11 08:45:17;;;;;;;;;;;1.80;99.90;;;;;;5033887;28;19909;-89
2020/12/11 08:48:03;;;;;;;;;;;2.00;99.90;;;;;;5032200;28;19917;-90
2020/12/11 08:52:54;;;;;;;;;;;2.20;99.90;;;;;;5033970;28;19913;-89
2020/12/11 08:55:21;;;;;;;;;;;2.20;99.90;;;;;;5043471;28;20026;-88
2020/12/11 08:57:49;;;;;;;;;;;2.20;99.90;;;;;;5051972;28;19915;-90
2020/12/11 09:00:15;;;;;;;;;;;2.30;99.90;;;;;;5051901;28;19912;-90
2020/12/11 09:02:44;;;;;;;;;;;2.30;99.90;;;;;;5052028;28;19909;-90
2020/12/11 09:05:11;;;;;;;;;;;2.60;99.90;;;;;;5052240;28;19913;-89
2020/12/11 09:07:37;;;;;;;;;;;3.00;99.90;;;;;;5051658;28;19909;-89
2020/12/11 09:10:03;;;;;;;;;;;3.50;99.90;;;;;;5051939;28;19909;-89
2020/12/11 09:12:28;;;;;;;;;;;3.80;99.90;;;;;;5051926;28;20379;-90
2020/12/11 09:14:54;;;;;;;;;;;4.00;99.90;;;;;;5051344;28;19917;-92
2020/12/11 09:17:57;;;;;;;;;;;4.30;99.90;;;;;;5031687;28;19917;-90
2020/12/11 09:20:23;;;;;;;;;;;4.40;99.90;;;;;;5022649;28;19913;-90
2020/12/11 09:22:49;;;;;;;;;;;4.60;99.90;;;;;;5031904;28;19909;-89
2020/12/11 09:25:14;;;;;;;;;;;4.60;99.90;;;;;;5037807;28;20429;-90
2020/12/11 09:33:58;;;;;;;;;;;4.30;99.90;;;;;;5009890;28;19932;-90
2020/12/11 09:36:25;;;;;;;;;;;4.30;99.90;;;;;;5036120;28;19910;-89
2020/12/11 09:38:51;;;;;;;;;;;4.20;99.90;;;;;;5032510;28;19914;-90
2020/12/11 09:41:19;;;;;;;;;;;4.20;99.90;;;;;;5043105;28;19908;-90
2020/12/11 09:48:47;;;;;;;;;;;4.50;99.90;;;;;;5045378;28;19908;-90
2020/12/11 09:51:40;;;;;;;;;;;4.50;99.90;;;;;;5051927;28;19924;-89
2020/12/11 09:56:49;;;;;;;;;;;4.40;99.90;;;;;;5057247;28;19931;-90
2020/12/11 09:59:18;;;;;;;;;;;4.30;99.90;;;;;;5055238;28;19912;-89
2020/12/11 10:04:20;;;;;;;;;;;4.40;99.90;;;;;;5057057;28;20046;-90
2020/12/11 10:06:45;;;;;;;;;;;4.40;99.90;;;;;;5055229;28;19956;-89
2020/12/11 10:09:11;;;;;;;;;;;4.50;99.90;;;;;;5055273;28;19974;-90
2020/12/11 10:11:36;;;;;;;;;;;4.50;99.90;;;;;;5055196;28;19908;-90
2020/12/11 10:16:49;;;;;;;;;;;4.40;99.90;;;;;;5045146;28;19955;-91
2020/12/11 10:19:15;;;;;;;;;;;4.10;99.90;;;;;;5045310;28;19921;-91
2020/12/11 10:21:40;;;;;;;;;;;4.00;99.90;;;;;;5047877;28;20280;-91
2020/12/11 10:24:18;;;;;;;;;;;3.90;99.90;;;;;;5036123;28;19909;-90
2020/12/11 10:26:44;;;;;;;;;;;3.90;99.90;;;;;;5034910;28;20386;-90
2020/12/11 10:29:10;;;;;;;;;;;3.80;99.90;;;;;;5034851;28;19913;-90
2020/12/11 10:31:36;;;;;;;;;;;3.80;99.90;;;;;;5034431;28;19915;-91
2020/12/11 10:34:01;;;;;;;;;;;3.70;99.90;;;;;;5041427;28;19996;-89
2020/12/11 10:36:28;;;;;;;;;;;3.50;99.90;;;;;;5044535;28;19963;-90
2020/12/11 10:38:54;;;;;;;;;;;3.40;99.90;;;;;;5035949;28;20007;-90
2020/12/11 10:41:22;;;;;;;;;;;3.40;99.90;;;;;;5034759;28;19957;-90
2020/12/11 10:43:48;;;;;;;;;;;3.30;99.90;;;;;;5034950;28;19909;-92
2020/12/11 10:46:14;;;;;;;;;;;3.30;99.90;;;;;;5035044;28;19916;-91
2020/12/11 10:48:39;;;;;;;;;;;3.40;99.90;;;;;;5034922;28;19909;-90
2020/12/11 10:51:05;;;;;;;;;;;3.60;99.90;;;;;;5034554;28;19928;-91
2020/12/11 10:53:30;;;;;;;;;;;3.70;99.90;;;;;;5034497;28;19987;-90
2020/12/11 10:55:56;;;;;;;;;;;3.80;99.90;;;;;;5035793;28;19925;-91
2020/12/11 10:58:22;;;;;;;;;;;3.90;99.90;;;;;;5034373;28;19913;-90
2020/12/11 11:00:47;;;;;;;;;;;3.90;99.90;;;;;;5045949;28;19909;-91
2020/12/11 11:03:13;;;;;;;;;;;3.90;99.90;;;;;;5053660;28;19908;-91
2020/12/11 11:09:16;;;;;;;;;;;3.90;99.90;;;;;;5055492;28;19969;-90
2020/12/11 11:28:52;;;;;;;;;;;3.30;99.90;;;;;;5047479;28;19971;-89
2020/12/11 11:31:44;;;;;;;;;;;3.20;99.90;;;;;;5038639;28;19909;-90
2020/12/11 11:34:09;;;;;;;;;;;3.10;99.90;;;;;;5033606;28;20260;-90
2020/12/11 11:36:35;;;;;;;;;;;3.00;99.90;;;;;;5033608;28;20027;-89
2020/12/11 11:39:00;;;;;;;;;;;3.00;99.90;;;;;;5033387;28;19913;-88
2020/12/11 11:47:56;;;;;;;;;;;3.20;99.90;;;;;;5006532;28;20407;-91
2020/12/11 11:50:28;;;;;;;;;;;3.10;99.90;;;;;;5045830;28;19917;-91
2020/12/11 11:53:04;;;;;;;;;;;3.00;99.90;;;;;;5053502;28;20063;-91
2020/12/11 11:55:47;;;;;;;;;;;3.00;99.90;;;;;;5037831;28;19916;-91
2020/12/11 11:58:13;;;;;;;;;;;3.10;99.90;;;;;;5033240;28;19909;-90
2020/12/11 12:00:39;;;;;;;;;;;3.10;99.90;;;;;;5033181;28;19909;-91
2020/12/11 12:06:22;;;;;;;;;;;3.20;99.90;;;;;;4898489;28;19918;-91
2020/12/11 12:11:32;;;;;;;;;;;3.20;99.90;;;;;;5034557;28;19955;-91
2020/12/11 12:14:12;;;;;;;;;;;3.20;99.90;;;;;;5033195;28;19948;-92
2020/12/11 12:16:39;;;;;;;;;;;3.20;99.90;;;;;;5032157;28;19956;-89
2020/12/11 12:19:08;;;;;;;;;;;3.20;99.90;;;;;;5032712;28;19913;-91
2020/12/11 12:30:20;;;;;;;;;;;3.50;99.90;;;;;;5019852;28;19908;-91
2020/12/11 12:38:05;;;;;;;;;;;3.30;99.90;;;;;;5033575;28;19932;-90
2020/12/11 12:43:47;;;;;;;;;;;3.30;99.90;;;;;;5000082;28;19909;-90
2020/12/11 12:46:13;;;;;;;;;;;3.40;99.90;;;;;;5002556;28;19987;-91
2020/12/11 12:49:12;;;;;;;;;;;3.40;99.90;;;;;;5032826;28;20010;-90
2020/12/11 12:51:38;;;;;;;;;;;3.50;99.90;;;;;;5047517;28;19928;-91
2020/12/11 12:54:04;;;;;;;;;;;3.60;99.90;;;;;;5046417;28;19909;-90
2020/12/11 13:05:34;;;;;;;;;;;3.40;99.90;;;;;;5053414;28;20393;-91
2020/12/11 13:08:02;;;;;;;;;;;3.30;99.90;;;;;;5052138;28;19909;-91
2020/12/11 13:10:29;;;;;;;;;;;3.30;99.90;;;;;;5049352;28;19913;-90
2020/12/11 13:12:54;;;;;;;;;;;3.30;99.90;;;;;;5045105;28;19954;-91
2020/12/11 13:15:20;;;;;;;;;;;3.30;99.90;;;;;;5031885;28;19909;-89
2020/12/11 13:17:46;;;;;;;;;;;3.30;99.90;;;;;;5031894;28;20011;-90
2020/12/11 13:20:13;;;;;;;;;;;3.30;99.90;;;;;;5031695;28;19967;-90
2020/12/11 13:25:21;;;;;;;;;;;3.30;99.90;;;;;;5031598;28;20281;-89
2020/12/11 13:28:06;;;;;;;;;;;3.20;99.90;;;;;;5051800;28;19909;-90
2020/12/11 13:30:32;;;;;;;;;;;3.10;99.90;;;;;;5042824;28;20003;-90
2020/12/11 13:32:57;;;;;;;;;;;3.10;99.90;;;;;;5032825;28;19909;-90
2020/12/11 13:35:23;;;;;;;;;;;3.10;99.90;;;;;;5042416;28;19954;-90
2020/12/11 13:37:48;;;;;;;;;;;3.10;99.90;;;;;;5052732;28;20283;-90
2020/12/11 13:40:14;;;;;;;;;;;3.20;99.90;;;;;;5052695;28;20008;-90
2020/12/11 13:42:41;;;;;;;;;;;3.20;99.90;;;;;;5052663;28;20282;-90
2020/12/11 13:45:10;;;;;;;;;;;3.20;99.90;;;;;;5052704;28;19915;-90
2020/12/11 13:47:37;;;;;;;;;;;3.30;99.90;;;;;;5051740;28;20653;-90
2020/12/11 13:50:15;;;;;;;;;;;3.20;99.90;;;;;;5052705;28;20375;-90
2020/12/11 13:52:43;;;;;;;;;;;3.30;99.90;;;;;;5052182;28;19923;-91
2020/12/11 13:55:22;;;;;;;;;;;3.30;99.90;;;;;;5052677;28;19963;-90
2020/12/11 13:57:47;;;;;;;;;;;3.40;99.90;;;;;;5050234;28;19944;-90
2020/12/11 14:00:16;;;;;;;;;;;3.30;99.90;;;;;;5052282;28;19939;-90
2020/12/11 14:02:42;;;;;;;;;;;3.30;99.90;;;;;;5052319;28;19909;-89
2020/12/11 14:05:07;;;;;;;;;;;3.30;99.90;;;;;;5052252;28;19909;-90
2020/12/11 14:07:36;;;;;;;;;;;3.40;99.90;;;;;;5052719;28;19919;-90
2020/12/11 14:10:05;;;;;;;;;;;3.30;99.90;;;;;;5052065;28;19913;-90
2020/12/11 14:12:30;;;;;;;;;;;3.40;99.90;;;;;;5052090;28;19916;-90
2020/12/11 14:14:56;;;;;;;;;;;3.50;99.90;;;;;;5052559;28;19951;-90
2020/12/11 14:17:31;;;;;;;;;;;3.40;99.90;;;;;;5052357;28;19916;-90
2020/12/11 14:22:34;;;;;;;;;;;3.60;99.90;;;;;;5054051;28;19913;-90
2020/12/11 14:25:00;;;;;;;;;;;3.60;99.90;;;;;;5046194;28;19909;-90
2020/12/11 14:27:25;;;;;;;;;;;3.60;99.90;;;;;;5032271;28;19913;-89
2020/12/11 14:29:51;;;;;;;;;;;3.70;99.90;;;;;;5034316;28;19916;-90
2020/12/11 14:32:16;;;;;;;;;;;3.60;99.90;;;;;;5041010;28;20291;-89
2020/12/11 14:34:45;;;;;;;;;;;3.60;99.90;;;;;;5032270;28;19909;-89
2020/12/11 14:37:13;;;;;;;;;;;3.60;99.90;;;;;;5032883;28;19932;-90
2020/12/11 14:39:39;;;;;;;;;;;3.60;99.90;;;;;;5038183;28;19928;-91
2020/12/11 14:42:10;;;;;;;;;;;3.50;99.90;;;;;;5046494;28;20380;-90
2020/12/11 14:50:50;;;;;;;;;;;3.30;99.90;;;;;;5036066;23;19931;-75
2020/12/11 14:53:16;;;;;;;;;;;3.30;99.90;;;;;;5033402;28;19920;-73
2020/12/11 14:55:41;;;;;;;;;;;3.10;99.90;;;;;;5015273;28;19914;-73
2020/12/11 14:58:07;;;;;;;;;;;3.00;99.90;;;;;;5025018;28;19957;-74
2020/12/11 15:00:33;;;;;;;;;;;2.90;99.90;;;;;;5016518;28;20332;-73
2020/12/11 15:02:58;;;;;;;;;;;2.80;99.90;;;;;;5026231;28;19917;-76
2020/12/11 15:05:24;;;;;;;;;;;2.80;99.90;;;;;;5010275;28;19913;-73
2020/12/11 15:07:50;;;;;;;;;;;2.70;99.90;;;;;;5022850;28;19914;-73
2020/12/11 15:10:15;;;;;;;;;;;2.60;99.90;;;;;;5023641;28;19920;-73
2020/12/11 15:12:41;;;;;;;;;;;2.50;99.90;;;;;;5021289;28;19909;-76
2020/12/11 15:15:06;;;;;;;;;;;2.40;99.90;;;;;;5019031;28;19959;-73
2020/12/11 15:17:32;;;;;;;;;;;2.40;99.90;;;;;;5017858;28;19929;-73
2020/12/11 15:19:57;;;;;;;;;;;2.30;99.90;;;;;;5013454;28;20358;-74
2020/12/11 15:22:23;;;;;;;;;;;2.30;99.90;;;;;;5013344;28;19909;-73
2020/12/11 15:24:48;;;;;;;;;;;2.30;99.90;;;;;;5014170;28;19914;-73
2020/12/11 15:27:14;;;;;;;;;;;2.20;99.90;;;;;;5015199;28;20024;-73
2020/12/11 15:29:39;;;;;;;;;;;2.20;99.90;;;;;;5011199;28;20397;-76
2020/12/11 15:32:05;;;;;;;;;;;2.20;99.90;;;;;;5020311;28;20553;-73
2020/12/11 15:34:30;;;;;;;;;;;2.20;99.90;;;;;;5013655;28;19921;-73
2020/12/11 15:36:56;;;;;;;;;;;2.20;99.90;;;;;;5016651;28;20345;-74
2020/12/11 15:39:21;;;;;;;;;;;2.20;99.90;;;;;;5019281;28;19918;-73
2020/12/11 15:41:46;;;;;;;;;;;2.30;99.90;;;;;;5012105;28;20397;-73
2020/12/11 15:44:12;;;;;;;;;;;2.30;99.90;;;;;;5012546;28;19918;-73
2020/12/11 15:46:37;;;;;;;;;;;2.40;99.90;;;;;;5012258;28;19948;-74
2020/12/11 15:49:03;;;;;;;;;;;2.40;99.90;;;;;;5012600;28;20198;-73
2020/12/11 15:51:28;;;;;;;;;;;2.40;99.90;;;;;;5013058;28;19967;-73
2020/12/11 15:53:54;;;;;;;;;;;2.50;99.90;;;;;;5012869;28;19909;-75
2020/12/11 15:56:19;;;;;;;;;;;2.50;99.90;;;;;;5013346;28;19924;-73
2020/12/11 15:58:45;;;;;;;;;;;2.60;99.90;;;;;;5022665;28;20019;-74
2020/12/11 16:01:11;;;;;;;;;;;2.60;99.90;;;;;;5046394;28;19913;-73
2020/12/11 16:03:36;;;;;;;;;;;2.60;99.90;;;;;;5021749;28;19909;-73
2020/12/11 16:06:02;;;;;;;;;;;2.70;99.90;;;;;;5026631;28;19959;-76